Messwerte Mayo

Temperatur

Temperatur
°C
1574316000 22.00 22.00 -3
1574319600 23.00 23.00 -3
1574323200 0.00 0.00 -3
1574326800 1.00 1.00 -2
1574330400 2.00 2.00 -2
1574334000 3.00 3.00 -2
1574337600 4.00 4.00 -2
1574341200 5.00 5.00 -3
1574344800 6.00 6.00 -3
1574348400 7.00 7.00 -3
1574352000 8.00 8.00 -3
1574355600 9.00 9.00 -3
1574359200 10.00 10.00
1574362800 11.00 11.00 -2
1574366400 12.00 12.00 -2
1574370000 13.00 13.00 -2
1574373600 14.00 14.00 -3
1574377200 15.00 15.00
1574380800 16.00 16.00 -4
1574384400 17.00 17.00 -5
1574388000 18.00 18.00 -5
1574391600 19.00 19.00 -5
1574395200 20.00 20.00 -6
1574398800 21.00 21.00 -6

Aktuellste Messwerte

Wettercharakter
Wetter: Nebel
Temperatur
-6 °C
Feuchtigkeit
93 %
Wind
0 km/h, -
Luftdruck
992 hPa
Messzeit: 21. November 2019, 21.00Datenquelle: METAR

Weitere Messstationen in der Nähe

Messstation Temperatur Entfernung
Carmacks CS -6 °C 166 km
Dawson - 168 km
Eagle, Eagle Airport 3 °C 287 km
Burwash 0 °C 297 km
Northway -16 °C 311 km
Whitehorse 2 °C 326 km
Haines Junction -1 °C 330 km

Wind

Windrichtung Böen Mittelwind
° km/h km/h
1574316000 22.00 21.00 - 22.00 220° 5
1574319600 23.00 22.00 - 23.00 250° 5
1574323200 0.00 23.00 - 0.00 0
1574326800 1.00 0.00 - 1.00 0
1574330400 2.00 1.00 - 2.00 0
1574334000 3.00 2.00 - 3.00 5
1574337600 4.00 3.00 - 4.00 5
1574341200 5.00 4.00 - 5.00 0
1574344800 6.00 5.00 - 6.00 280° 5
1574348400 7.00 6.00 - 7.00 40° 5
1574352000 8.00 7.00 - 8.00 5
1574355600 9.00 8.00 - 9.00 0
1574359200 10.00 9.00 - 10.00
1574362800 11.00 10.00 - 11.00 50° 5
1574366400 12.00 11.00 - 12.00 0
1574370000 13.00 12.00 - 13.00 80° 5
1574373600 14.00 13.00 - 14.00 80° 5
1574377200 15.00 14.00 - 15.00
1574380800 16.00 15.00 - 16.00 0
1574384400 17.00 16.00 - 17.00 0
1574388000 18.00 17.00 - 18.00 0
1574391600 19.00 18.00 - 19.00 90° 5
1574395200 20.00 19.00 - 20.00 5
1574398800 21.00 20.00 - 21.00 0

Ihre Wetterstation

Fehlt Ihre Wetterstation auf unserem Portal?

Schreiben Sie an network@meteonews.ch

Klima

Wann ist es am wärmsten? Wann regnet es am wenigsten? Unsere Klimadaten geben Auskunft.